createdAt,value
2018-11-07T00:02:01.607Z,66.47
2018-11-07T00:04:34.539Z,66.81
2018-11-07T00:07:05.876Z,66.81
2018-11-07T00:09:38.612Z,66.79
2018-11-07T00:12:11.447Z,66.86
2018-11-07T00:14:42.883Z,66.63
2018-11-07T00:17:15.495Z,66.76
2018-11-07T00:19:48.391Z,66.76
2018-11-07T00:22:21.361Z,66.62
2018-11-07T00:24:52.623Z,66.61
2018-11-07T00:27:25.467Z,66.16
2018-11-07T00:29:58.562Z,65.85
2018-11-07T00:32:29.627Z,65.85
2018-11-07T00:35:02.509Z,65.77
2018-11-07T00:37:35.406Z,65.77
2018-11-07T00:40:06.891Z,65.57
2018-11-07T00:42:39.608Z,65.64
2018-11-07T00:45:14.449Z,65.71
2018-11-07T00:47:45.886Z,65.71
2018-11-07T00:50:19.983Z,66.12
2018-11-07T00:52:52.789Z,65.83
2018-11-07T00:55:25.621Z,66.06
2018-11-07T00:57:58.497Z,66.29
2018-11-07T01:00:36.638Z,66.20
2018-11-07T01:03:09.819Z,65.75
2018-11-07T01:05:42.621Z,65.75
2018-11-07T01:08:15.438Z,65.77
2018-11-07T01:10:46.884Z,65.93
2018-11-07T01:13:19.780Z,66.34
2018-11-07T01:15:52.638Z,66.16
2018-11-07T01:18:25.661Z,66.46
2018-11-07T01:20:58.430Z,66.60
2018-11-07T01:23:29.934Z,66.12
2018-11-07T01:26:02.613Z,65.91
2018-11-07T01:28:35.634Z,66.22
2018-11-07T01:31:08.657Z,66.05
2018-11-07T01:33:41.473Z,66.01
2018-11-07T01:36:12.878Z,66.01
2018-11-07T01:38:45.646Z,66.11
2018-11-07T01:41:18.408Z,65.89
2018-11-07T01:43:49.894Z,65.93
2018-11-07T01:46:22.651Z,65.97
2018-11-07T01:48:55.458Z,66.05
2018-11-07T01:51:28.367Z,65.88
2018-11-07T01:53:59.634Z,65.94
2018-11-07T01:56:30.889Z,65.99
2018-11-07T01:59:03.651Z,65.86
2018-11-07T02:01:34.891Z,65.70
2018-11-07T02:04:07.632Z,65.72
2018-11-07T02:06:40.457Z,65.80
2018-11-07T02:09:12.055Z,65.59
2018-11-07T02:11:44.626Z,65.59
2018-11-07T02:14:17.480Z,65.46
2018-11-07T02:16:50.354Z,65.44
2018-11-07T02:19:21.577Z,65.58
2018-11-07T02:21:54.394Z,65.29
2018-11-07T02:24:25.463Z,65.48
2018-11-07T02:26:58.352Z,65.27
2018-11-07T02:29:29.484Z,65.44
2018-11-07T02:32:02.348Z,65.26
2018-11-07T02:34:33.665Z,65.47
2018-11-07T02:37:06.443Z,65.75
2018-11-07T02:39:37.581Z,65.75
2018-11-07T02:42:10.427Z,65.73
2018-11-07T02:44:43.361Z,65.73
2018-11-07T02:47:16.393Z,65.95
2018-11-07T02:49:47.880Z,66.17
2018-11-07T02:52:20.628Z,66.34
2018-11-07T02:54:53.606Z,66.82
2018-11-07T02:57:26.477Z,66.82
2018-11-07T02:59:59.402Z,66.89
2018-11-07T03:02:32.120Z,66.78
2018-11-07T03:05:05.122Z,67.02
2018-11-07T03:07:38.750Z,67.16
2018-11-07T03:10:13.579Z,67.06
2018-11-07T03:12:45.813Z,67.06
2018-11-07T03:15:18.623Z,67.09
2018-11-07T03:17:51.511Z,67.22
2018-11-07T03:20:24.405Z,67.22
2018-11-07T03:22:57.323Z,67.11
2018-11-07T03:25:28.682Z,67.11
2018-11-07T03:28:01.412Z,67.20
2018-11-07T03:30:38.637Z,67.46
2018-11-07T03:33:11.479Z,67.47
2018-11-07T03:35:45.147Z,67.47
2018-11-07T03:38:18.119Z,67.33
2018-11-07T03:40:51.112Z,67.30
2018-11-07T03:43:24.095Z,67.08
2018-11-07T03:46:00.764Z,66.87
2018-11-07T03:48:34.114Z,66.63
2018-11-07T03:51:06.608Z,66.68
2018-11-07T03:53:39.438Z,66.68
2018-11-07T03:56:10.885Z,66.70
2018-11-07T04:01:29.651Z,66.60
2018-11-07T04:04:02.484Z,66.50
2018-11-07T04:06:33.880Z,66.50
2018-11-07T04:09:09.254Z,66.20
2018-11-07T04:11:42.501Z,66.05
2018-11-07T04:14:15.355Z,66.28
2018-11-07T04:16:48.353Z,66.05
2018-11-07T04:19:19.602Z,66.26
2018-11-07T04:21:52.480Z,66.48
2018-11-07T04:24:23.899Z,66.48
2018-11-07T04:26:56.629Z,66.90
2018-11-07T04:29:29.463Z,66.64
2018-11-07T04:32:02.112Z,66.64
2018-11-07T04:34:35.127Z,66.67
2018-11-07T04:37:08.093Z,66.58
2018-11-07T04:39:41.102Z,66.75
2018-11-07T04:42:14.152Z,66.92
2018-11-07T04:44:47.126Z,66.86
2018-11-07T04:47:20.110Z,67.02
2018-11-07T04:49:53.098Z,67.32
2018-11-07T04:52:25.653Z,67.32
2018-11-07T04:54:58.978Z,67.57
2018-11-07T04:57:31.799Z,67.57
2018-11-07T05:00:04.918Z,67.27
2018-11-07T05:02:37.615Z,67.13
2018-11-07T05:05:39.719Z,67.27
2018-11-07T05:08:12.641Z,67.37
2018-11-07T05:10:46.635Z,67.26
2018-11-07T05:13:19.476Z,67.26
2018-11-07T05:15:50.889Z,67.13
2018-11-07T05:18:23.687Z,67.37
2018-11-07T05:20:56.400Z,67.37
2018-11-07T05:23:29.399Z,67.46
2018-11-07T05:26:00.520Z,67.81
2018-11-07T05:28:33.424Z,67.65
2018-11-07T05:31:04.638Z,67.72
2018-11-07T05:33:37.602Z,68.33
2018-11-07T05:36:10.534Z,67.94
2018-11-07T05:38:43.359Z,67.94
2018-11-07T05:41:16.440Z,67.98
2018-11-07T05:43:48.037Z,67.97
2018-11-07T05:46:21.117Z,67.70
2018-11-07T05:48:54.067Z,67.74
2018-11-07T05:51:26.622Z,67.52
2018-11-07T05:53:59.488Z,67.55
2018-11-07T05:56:30.891Z,67.54
2018-11-07T05:59:03.628Z,67.32
2018-11-07T06:01:34.905Z,67.32
2018-11-07T06:04:08.492Z,67.32
2018-11-07T06:06:41.401Z,67.25
2018-11-07T06:09:12.506Z,67.13
2018-11-07T06:11:45.423Z,66.79
2018-11-07T06:14:16.500Z,66.40
2018-11-07T06:16:49.462Z,66.48
2018-11-07T06:19:20.906Z,66.73
2018-11-07T06:21:54.175Z,67.18
2018-11-07T06:24:27.169Z,67.22
2018-11-07T06:27:00.125Z,67.33
2018-11-07T06:29:33.143Z,67.46
2018-11-07T06:32:06.252Z,67.46
2018-11-07T06:34:39.261Z,67.34
2018-11-07T06:37:12.400Z,66.86
2018-11-07T06:39:46.483Z,66.86
2018-11-07T06:42:17.901Z,66.77
2018-11-07T06:44:51.112Z,66.57
2018-11-07T06:47:23.980Z,66.61
2018-11-07T06:49:57.262Z,66.27
2018-11-07T06:52:30.264Z,65.93
2018-11-07T06:55:03.295Z,65.67
2018-11-07T06:57:36.369Z,65.62
2018-11-07T07:00:15.657Z,65.33
2018-11-07T07:02:49.597Z,64.35
2018-11-07T07:05:20.912Z,64.35
2018-11-07T07:07:53.675Z,63.81
2018-11-07T07:10:26.410Z,63.29
2018-11-07T07:12:59.402Z,63.29
2018-11-07T07:15:33.608Z,63.12
2018-11-07T07:18:05.111Z,62.98
2018-11-07T07:20:45.422Z,62.22
2018-11-07T07:23:18.421Z,61.48
2018-11-07T07:25:51.437Z,60.86
2018-11-07T07:28:24.412Z,60.98
2018-11-07T07:30:57.397Z,61.06
2018-11-07T07:33:28.757Z,61.14
2018-11-07T07:36:01.410Z,61.08
2018-11-07T07:38:32.896Z,60.93
2018-11-07T07:41:05.534Z,60.66
2018-11-07T07:43:38.446Z,61.13
2018-11-07T07:46:11.251Z,61.13
2018-11-07T07:48:44.420Z,60.41
2018-11-07T07:51:17.111Z,60.08
2018-11-07T07:53:50.183Z,60.04
2018-11-07T07:56:23.140Z,60.27
2018-11-07T07:58:56.263Z,60.26
2018-11-07T08:01:29.368Z,60.04
2018-11-07T08:04:00.916Z,59.79
2018-11-07T08:06:36.560Z,57.26
2018-11-07T08:09:14.264Z,57.26
2018-11-07T08:11:47.445Z,55.00
2018-11-07T08:14:20.464Z,52.42
2018-11-07T08:16:51.693Z,50.03
2018-11-07T08:19:24.654Z,45.09
2018-11-07T08:21:57.690Z,45.83
2018-11-07T08:24:30.654Z,44.20
2018-11-07T08:27:03.449Z,44.20
2018-11-07T08:29:35.044Z,42.28
2018-11-07T08:32:07.918Z,43.99
2018-11-07T08:34:40.820Z,45.32
2018-11-07T08:37:13.630Z,46.25
2018-11-07T08:39:46.663Z,47.05
2018-11-07T08:42:19.497Z,47.05
2018-11-07T08:44:50.658Z,46.88
2018-11-07T08:47:23.501Z,45.12
2018-11-07T08:49:55.271Z,44.01
2018-11-07T08:52:27.982Z,44.66
2018-11-07T08:55:01.326Z,43.78
2018-11-07T08:57:34.260Z,42.92
2018-11-07T09:00:09.411Z,42.20
2018-11-07T09:02:40.892Z,41.92
2018-11-07T09:05:14.437Z,41.07
2018-11-07T09:07:46.469Z,40.17
2018-11-07T09:10:20.651Z,39.91
2018-11-07T09:12:53.569Z,39.81
2018-11-07T09:15:26.444Z,39.81
2018-11-07T09:17:57.897Z,39.87
2018-11-07T09:20:30.989Z,39.61
2018-11-07T09:23:04.152Z,39.42
2018-11-07T09:25:39.258Z,40.04
2018-11-07T09:28:14.734Z,40.41
2018-11-07T09:30:47.627Z,40.36
2018-11-07T09:36:07.658Z,40.29
2018-11-07T09:38:40.667Z,40.16
2018-11-07T09:41:13.630Z,40.52
2018-11-07T09:43:46.473Z,40.52
2018-11-07T09:46:19.444Z,39.69
2018-11-07T09:48:52.413Z,39.71
2018-11-07T09:51:25.270Z,39.75
2018-11-07T09:53:58.556Z,39.02
2018-11-07T09:56:30.080Z,39.32
2018-11-07T09:59:03.120Z,39.14
2018-11-07T10:04:09.918Z,38.20
2018-11-07T10:06:42.594Z,37.44
2018-11-07T10:09:15.470Z,37.44
2018-11-07T10:11:48.473Z,36.84
2018-11-07T10:14:21.482Z,37.00
2018-11-07T10:16:52.883Z,37.00
2018-11-07T10:19:25.557Z,37.42
2018-11-07T10:21:58.456Z,37.42
2018-11-07T10:24:29.894Z,37.53
2018-11-07T10:27:02.750Z,37.45
2018-11-07T10:29:35.928Z,36.10
2018-11-07T10:32:08.620Z,36.10
2018-11-07T10:34:41.548Z,36.05
2018-11-07T10:37:14.446Z,36.05
2018-11-07T10:39:46.067Z,34.81
2018-11-07T10:42:19.255Z,33.99
2018-11-07T10:44:52.433Z,33.02
2018-11-07T10:47:23.900Z,32.81
2018-11-07T10:49:57.157Z,32.28
2018-11-07T10:52:30.107Z,31.92
2018-11-07T10:55:03.264Z,30.71
2018-11-07T10:57:36.521Z,30.71
2018-11-07T11:00:32.354Z,31.31
2018-11-07T11:03:12.777Z,30.78
2018-11-07T11:05:46.257Z,30.78
2018-11-07T11:08:19.132Z,30.26
2018-11-07T11:10:52.256Z,27.96
2018-11-07T11:13:26.909Z,27.96
2018-11-07T11:15:59.632Z,27.34
2018-11-07T11:18:32.616Z,26.63
2018-11-07T11:21:05.490Z,25.81
2018-11-07T11:23:38.518Z,25.81
2018-11-07T11:26:11.419Z,25.53
2018-11-07T11:28:42.904Z,25.48
2018-11-07T11:31:15.825Z,25.68
2018-11-07T11:33:48.693Z,23.81
2018-11-07T11:36:21.444Z,23.81
2018-11-07T11:38:54.516Z,23.42
2018-11-07T11:41:27.486Z,22.97
2018-11-07T11:44:00.443Z,21.38
2018-11-07T11:46:31.896Z,21.61
2018-11-07T11:49:05.031Z,21.27
2018-11-07T11:51:37.630Z,23.24
2018-11-07T11:54:10.406Z,23.24
2018-11-07T11:56:42.125Z,24.51
2018-11-07T11:59:15.534Z,24.59
2018-11-07T12:01:47.023Z,24.02
2018-11-07T12:04:20.244Z,24.00
2018-11-07T12:06:53.402Z,24.10
2018-11-07T12:09:26.392Z,23.63
2018-11-07T12:11:59.419Z,22.83
2018-11-07T12:14:30.895Z,22.65
2018-11-07T12:17:04.170Z,23.11
2018-11-07T12:22:53.666Z,24.95
2018-11-07T12:25:26.622Z,25.38
2018-11-07T12:27:59.613Z,25.38
2018-11-07T12:30:35.712Z,25.38
2018-11-07T12:33:08.706Z,25.08
2018-11-07T12:35:42.257Z,25.08
2018-11-07T12:38:15.253Z,25.33
2018-11-07T12:40:48.401Z,25.64
2018-11-07T12:43:20.041Z,25.86
2018-11-07T12:45:53.255Z,26.22
2018-11-07T12:48:27.459Z,26.41
2018-11-07T12:51:00.557Z,27.18
2018-11-07T12:53:33.414Z,27.85
2018-11-07T12:56:05.065Z,28.49
2018-11-07T12:58:38.153Z,28.56
2018-11-07T13:01:11.480Z,28.28
2018-11-07T13:03:42.924Z,28.97
2018-11-07T13:06:16.145Z,29.56
2018-11-07T13:08:48.663Z,30.14
2018-11-07T13:11:21.681Z,31.38
2018-11-07T13:13:54.398Z,31.38
2018-11-07T13:16:27.479Z,33.18
2018-11-07T13:18:59.047Z,34.15
2018-11-07T13:21:32.602Z,34.75
2018-11-07T13:24:05.785Z,35.55
2018-11-07T13:26:39.107Z,35.55
2018-11-07T13:29:14.110Z,34.98
2018-11-07T13:31:47.438Z,34.68
2018-11-07T13:34:19.310Z,33.96
2018-11-07T13:36:52.333Z,33.55
2018-11-07T13:39:26.446Z,32.72
2018-11-07T13:41:59.432Z,32.54
2018-11-07T13:44:30.895Z,32.85
2018-11-07T13:47:04.151Z,33.37
2018-11-07T13:49:37.108Z,34.04
2018-11-07T13:52:10.461Z,34.17
2018-11-07T13:54:43.496Z,34.69
2018-11-07T13:57:16.424Z,35.06
2018-11-07T13:59:47.874Z,35.67
2018-11-07T14:02:20.645Z,36.29
2018-11-07T14:04:53.610Z,37.71
2018-11-07T14:07:26.606Z,37.71
2018-11-07T14:09:59.674Z,38.34
2018-11-07T14:12:32.623Z,38.77
2018-11-07T14:15:05.984Z,39.30
2018-11-07T14:17:39.352Z,39.30
2018-11-07T14:20:12.392Z,39.63
2018-11-07T14:22:43.718Z,40.54
2018-11-07T14:25:16.976Z,41.08
2018-11-07T14:27:50.230Z,41.13
2018-11-07T14:30:23.141Z,41.52
2018-11-07T14:32:58.769Z,41.56
2018-11-07T14:35:32.823Z,42.33
2018-11-07T14:38:05.647Z,42.71
2018-11-07T14:40:42.914Z,42.71
2018-11-07T14:43:15.784Z,43.26
2018-11-07T14:45:50.676Z,44.48
2018-11-07T14:48:23.469Z,44.48
2018-11-07T14:50:56.464Z,45.05
2018-11-07T14:53:29.500Z,45.53
2018-11-07T14:56:02.434Z,46.31
2018-11-07T14:58:34.030Z,46.62
2018-11-07T15:01:06.971Z,47.36
2018-11-07T15:03:40.246Z,47.90
2018-11-07T15:06:13.432Z,48.29
2018-11-07T15:08:44.906Z,48.71
2018-11-07T15:11:18.163Z,49.01
2018-11-07T15:13:51.648Z,49.53
2018-11-07T15:16:24.629Z,50.26
2018-11-07T15:18:57.610Z,50.49
2018-11-07T15:21:29.003Z,50.49
2018-11-07T15:24:02.150Z,50.82
2018-11-07T15:26:35.395Z,51.13
2018-11-07T15:29:06.874Z,51.60
2018-11-07T15:31:39.643Z,51.65
2018-11-07T15:34:12.502Z,51.97
2018-11-07T15:36:45.429Z,52.08
2018-11-07T15:39:16.868Z,53.06
2018-11-07T15:41:49.652Z,52.95
2018-11-07T15:44:22.780Z,52.95
2018-11-07T15:46:55.957Z,53.23
2018-11-07T15:49:28.892Z,53.65
2018-11-07T15:52:01.901Z,53.89
2018-11-07T15:54:34.660Z,54.28
2018-11-07T15:57:06.037Z,54.51
2018-11-07T15:59:39.262Z,54.87
2018-11-07T16:02:12.432Z,54.95
2018-11-07T16:04:45.389Z,55.19
2018-11-07T16:07:18.437Z,55.27
2018-11-07T16:09:49.891Z,55.59
2018-11-07T16:12:22.609Z,56.18
2018-11-07T16:14:55.607Z,56.18
2018-11-07T16:17:28.654Z,56.28
2018-11-07T16:20:01.616Z,56.48
2018-11-07T16:22:34.613Z,56.88
2018-11-07T16:25:08.247Z,57.21
2018-11-07T16:27:42.109Z,57.62
2018-11-07T16:30:17.432Z,57.62
2018-11-07T16:32:52.421Z,57.44
2018-11-07T16:35:23.889Z,57.59
2018-11-07T16:37:56.676Z,57.64
2018-11-07T16:40:29.643Z,57.75
2018-11-07T16:43:02.659Z,57.89
2018-11-07T16:45:37.665Z,57.85
2018-11-07T16:48:10.822Z,57.93
2018-11-07T16:50:45.244Z,57.93
2018-11-07T16:53:18.412Z,58.09
2018-11-07T16:55:49.565Z,58.23
2018-11-07T16:58:22.616Z,58.36
2018-11-07T17:00:55.605Z,58.59
2018-11-07T17:03:28.653Z,58.64
2018-11-07T17:06:01.399Z,58.64
2018-11-07T17:08:32.677Z,58.68
2018-11-07T17:11:05.636Z,58.73
2018-11-07T17:13:38.609Z,58.96
2018-11-07T17:16:11.409Z,58.76
2018-11-07T17:18:42.884Z,58.19
2018-11-07T17:21:15.599Z,58.19
2018-11-07T17:23:48.714Z,58.42
2018-11-07T17:26:21.599Z,58.59
2018-11-07T17:28:54.763Z,58.59
2018-11-07T17:31:27.707Z,58.62
2018-11-07T17:34:00.626Z,58.80
2018-11-07T17:36:33.445Z,58.77
2018-11-07T17:39:06.358Z,58.65
2018-11-07T17:41:39.458Z,58.70
2018-11-07T17:44:10.871Z,58.86
2018-11-07T17:46:43.620Z,58.66
2018-11-07T17:49:16.727Z,58.76
2018-11-07T17:51:49.605Z,58.76
2018-11-07T17:54:22.640Z,58.96
2018-11-07T17:56:55.641Z,58.97
2018-11-07T17:59:28.598Z,59.29
2018-11-07T18:02:01.452Z,59.29
2018-11-07T18:04:33.241Z,59.51
2018-11-07T18:07:06.424Z,59.96
2018-11-07T18:09:37.932Z,60.16
2018-11-07T18:12:11.133Z,59.99
2018-11-07T18:14:44.239Z,60.14
2018-11-07T18:17:17.110Z,59.59
2018-11-07T18:19:50.248Z,59.59
2018-11-07T18:22:23.420Z,59.48
2018-11-07T18:24:54.884Z,59.52
2018-11-07T18:27:28.271Z,59.52
2018-11-07T18:30:02.410Z,59.61
2018-11-07T18:32:36.150Z,59.48
2018-11-07T18:35:14.437Z,59.59
2018-11-07T18:37:46.331Z,59.59
2018-11-07T18:40:26.447Z,59.64
2018-11-07T18:42:58.456Z,59.83
2018-11-07T18:45:29.871Z,60.21
2018-11-07T18:48:02.615Z,60.40
2018-11-07T18:50:37.365Z,60.60
2018-11-07T18:53:10.412Z,60.86
2018-11-07T18:55:45.265Z,60.69
2018-11-07T18:58:18.364Z,60.40
2018-11-07T19:00:49.657Z,60.34
2018-11-07T19:03:22.640Z,59.86
2018-11-07T19:05:55.448Z,59.92
2018-11-07T19:08:26.665Z,59.92
2018-11-07T19:10:59.513Z,60.09
2018-11-07T19:13:32.405Z,60.31
2018-11-07T19:16:05.405Z,60.48
2018-11-07T19:18:37.034Z,60.49
2018-11-07T19:21:10.100Z,60.64
2018-11-07T19:23:43.149Z,60.93
2018-11-07T19:26:15.944Z,61.72
2018-11-07T19:28:48.681Z,61.74
2018-11-07T19:31:21.428Z,61.87
2018-11-07T19:33:52.892Z,61.46
2018-11-07T19:36:25.800Z,61.64
2018-11-07T19:38:58.687Z,61.24
2018-11-07T19:41:32.322Z,61.02
2018-11-07T19:44:03.664Z,61.02
2018-11-07T19:46:34.901Z,60.97
2018-11-07T19:49:08.593Z,60.83
2018-11-07T19:51:41.395Z,60.97
2018-11-07T19:54:12.701Z,60.86
2018-11-07T19:56:46.357Z,61.25
2018-11-07T19:59:17.876Z,61.25
2018-11-07T20:01:50.681Z,61.10
2018-11-07T20:04:23.583Z,60.70
2018-11-07T20:06:56.253Z,60.70
2018-11-07T20:09:27.663Z,61.27
2018-11-07T20:12:00.455Z,61.23
2018-11-07T20:14:31.648Z,61.23
2018-11-07T20:17:02.911Z,61.79
2018-11-07T20:19:35.903Z,61.89
2018-11-07T20:22:08.682Z,61.84
2018-11-07T20:24:41.615Z,62.17
2018-11-07T20:27:12.891Z,62.17
2018-11-07T20:29:45.639Z,61.85
2018-11-07T20:32:18.628Z,61.04
2018-11-07T20:34:51.438Z,61.04
2018-11-07T20:37:22.897Z,61.26
2018-11-07T20:39:55.672Z,61.50
2018-11-07T20:42:28.449Z,61.55
2018-11-07T20:44:59.655Z,61.52
2018-11-07T20:47:32.475Z,61.61
2018-11-07T20:50:03.891Z,61.61
2018-11-07T20:52:36.663Z,61.78
2018-11-07T20:55:10.256Z,61.78
2018-11-07T20:57:44.126Z,61.96
2018-11-07T21:00:20.591Z,62.09
2018-11-07T21:02:53.646Z,61.85
2018-11-07T21:05:27.155Z,61.81
2018-11-07T21:07:59.973Z,61.97
2018-11-07T21:10:33.286Z,61.97
2018-11-07T21:13:06.401Z,62.13
2018-11-07T21:15:44.258Z,62.13
2018-11-07T21:18:17.460Z,61.87
2018-11-07T21:20:48.723Z,61.95
2018-11-07T21:23:21.815Z,61.92
2018-11-07T21:25:54.977Z,62.09
2018-11-07T21:28:28.250Z,62.17
2018-11-07T21:31:01.569Z,62.08
2018-11-07T21:33:34.563Z,62.58
2018-11-07T21:36:05.893Z,62.71
2018-11-07T21:38:38.976Z,62.71
2018-11-07T21:41:11.648Z,62.19
2018-11-07T21:43:44.411Z,62.19
2018-11-07T21:46:15.900Z,62.33
2018-11-07T21:48:48.903Z,62.42
2018-11-07T21:51:21.799Z,62.62
2018-11-07T21:53:54.611Z,62.91
2018-11-07T21:56:26.246Z,63.04
2018-11-07T21:58:59.137Z,63.13
2018-11-07T22:01:32.246Z,63.28
2018-11-07T22:04:05.162Z,63.20
2018-11-07T22:06:38.109Z,63.21
2018-11-07T22:09:12.604Z,63.28
2018-11-07T22:11:45.421Z,63.34
2018-11-07T22:14:18.429Z,63.19
2018-11-07T22:16:49.877Z,63.26
2018-11-07T22:19:22.816Z,63.07
2018-11-07T22:21:55.959Z,63.47
2018-11-07T22:24:28.818Z,63.47
2018-11-07T22:27:01.828Z,63.68
2018-11-07T22:29:35.277Z,63.68
2018-11-07T22:32:08.425Z,63.53
2018-11-07T22:34:41.427Z,63.73
2018-11-07T22:37:14.350Z,63.69
2018-11-07T22:39:47.393Z,63.40
2018-11-07T22:43:00.896Z,63.62
2018-11-07T22:45:34.286Z,63.66
2018-11-07T22:48:07.247Z,63.51
2018-11-07T22:50:50.017Z,63.20
2018-11-07T22:53:23.105Z,62.88
2018-11-07T22:55:56.252Z,62.25
2018-11-07T22:58:30.700Z,62.26
2018-11-07T23:01:20.528Z,62.45
2018-11-07T23:03:52.609Z,62.45
2018-11-07T23:06:25.404Z,62.48
2018-11-07T23:08:56.888Z,62.36
2018-11-07T23:11:29.916Z,62.64
2018-11-07T23:14:02.768Z,62.80
2018-11-07T23:16:36.250Z,62.77
2018-11-07T23:19:09.325Z,62.71
2018-11-07T23:21:42.397Z,62.78
2018-11-07T23:24:15.526Z,62.71
2018-11-07T23:26:48.479Z,62.57
2018-11-07T23:29:21.410Z,64.04
2018-11-07T23:31:54.410Z,64.04
2018-11-07T23:34:27.355Z,64.53
2018-11-07T23:37:00.430Z,64.66
2018-11-07T23:39:31.696Z,64.89
2018-11-07T23:42:04.478Z,64.72
2018-11-07T23:44:37.458Z,64.45
2018-11-07T23:47:10.479Z,64.45
2018-11-07T23:49:43.392Z,64.32
2018-11-07T23:52:33.031Z,64.18
2018-11-07T23:55:06.147Z,63.57
2018-11-07T23:57:39.117Z,63.11
